sensor_id;sensor_type;location;lat;lon;timestamp;P1;durP1;ratioP1;P2;durP2;ratioP2
69511;SDS011;70777;52.034;4.644;2023-09-30T00:00:12;14.98;;;6.05;;
69511;SDS011;70777;52.034;4.644;2023-09-30T00:02:42;10.93;;;5.03;;
69511;SDS011;70777;52.034;4.644;2023-09-30T00:05:13;8.60;;;4.63;;
69511;SDS011;70777;52.034;4.644;2023-09-30T00:07:45;13.70;;;6.07;;
69511;SDS011;70777;52.034;4.644;2023-09-30T00:10:13;11.70;;;5.10;;
69511;SDS011;70777;52.034;4.644;2023-09-30T00:12:42;11.52;;;4.80;;
69511;SDS011;70777;52.034;4.644;2023-09-30T00:15:12;11.90;;;4.43;;
69511;SDS011;70777;52.034;4.644;2023-09-30T00:17:42;12.57;;;5.57;;
69511;SDS011;70777;52.034;4.644;2023-09-30T00:20:13;13.07;;;4.90;;
69511;SDS011;70777;52.034;4.644;2023-09-30T00:22:44;14.00;;;5.50;;
69511;SDS011;70777;52.034;4.644;2023-09-30T00:25:14;12.82;;;5.60;;
69511;SDS011;70777;52.034;4.644;2023-09-30T00:27:47;17.25;;;7.45;;
69511;SDS011;70777;52.034;4.644;2023-09-30T00:30:17;10.95;;;4.72;;
69511;SDS011;70777;52.034;4.644;2023-09-30T00:32:48;14.18;;;5.88;;
69511;SDS011;70777;52.034;4.644;2023-09-30T00:35:19;16.90;;;5.43;;
69511;SDS011;70777;52.034;4.644;2023-09-30T00:37:46;9.90;;;5.18;;
69511;SDS011;70777;52.034;4.644;2023-09-30T00:40:17;13.50;;;6.05;;
69511;SDS011;70777;52.034;4.644;2023-09-30T00:42:46;14.35;;;5.85;;
69511;SDS011;70777;52.034;4.644;2023-09-30T00:45:18;11.68;;;5.40;;
69511;SDS011;70777;52.034;4.644;2023-09-30T00:47:49;12.70;;;5.57;;
69511;SDS011;70777;52.034;4.644;2023-09-30T00:50:19;13.82;;;5.93;;
69511;SDS011;70777;52.034;4.644;2023-09-30T00:52:53;12.40;;;5.70;;
69511;SDS011;70777;52.034;4.644;2023-09-30T00:55:25;11.90;;;5.43;;
69511;SDS011;70777;52.034;4.644;2023-09-30T00:57:55;12.95;;;4.72;;
69511;SDS011;70777;52.034;4.644;2023-09-30T01:00:24;14.07;;;5.85;;
69511;SDS011;70777;52.034;4.644;2023-09-30T01:02:53;13.15;;;5.93;;
69511;SDS011;70777;52.034;4.644;2023-09-30T01:05:26;12.02;;;5.72;;
69511;SDS011;70777;52.034;4.644;2023-09-30T01:07:56;14.70;;;5.80;;
69511;SDS011;70777;52.034;4.644;2023-09-30T01:10:26;14.65;;;6.07;;
69511;SDS011;70777;52.034;4.644;2023-09-30T01:12:55;11.13;;;5.80;;
69511;SDS011;70777;52.034;4.644;2023-09-30T01:15:26;13.10;;;5.70;;
69511;SDS011;70777;52.034;4.644;2023-09-30T01:17:57;12.40;;;5.53;;
69511;SDS011;70777;52.034;4.644;2023-09-30T01:20:25;14.45;;;5.22;;
69511;SDS011;70777;52.034;4.644;2023-09-30T01:22:56;13.40;;;6.05;;
69511;SDS011;70777;52.034;4.644;2023-09-30T01:25:27;13.25;;;5.82;;
69511;SDS011;70777;52.034;4.644;2023-09-30T01:27:59;10.60;;;6.03;;
69511;SDS011;70777;52.034;4.644;2023-09-30T01:30:32;15.73;;;6.78;;
69511;SDS011;70777;52.034;4.644;2023-09-30T01:33:03;14.65;;;6.10;;
69511;SDS011;70777;52.034;4.644;2023-09-30T01:35:34;18.13;;;6.70;;
69511;SDS011;70777;52.034;4.644;2023-09-30T01:38:03;14.82;;;6.47;;
69511;SDS011;70777;52.034;4.644;2023-09-30T01:40:34;12.55;;;5.63;;
69511;SDS011;70777;52.034;4.644;2023-09-30T01:43:03;15.07;;;6.28;;
69511;SDS011;70777;52.034;4.644;2023-09-30T01:45:33;17.50;;;6.07;;
69511;SDS011;70777;52.034;4.644;2023-09-30T01:48:02;13.20;;;6.22;;
69511;SDS011;70777;52.034;4.644;2023-09-30T01:50:40;18.13;;;8.02;;
69511;SDS011;70777;52.034;4.644;2023-09-30T01:53:11;15.70;;;7.30;;
69511;SDS011;70777;52.034;4.644;2023-09-30T01:55:41;15.90;;;8.02;;
69511;SDS011;70777;52.034;4.644;2023-09-30T01:58:12;15.93;;;7.38;;
69511;SDS011;70777;52.034;4.644;2023-09-30T02:00:42;15.40;;;7.05;;
69511;SDS011;70777;52.034;4.644;2023-09-30T02:03:11;17.67;;;8.25;;
69511;SDS011;70777;52.034;4.644;2023-09-30T02:05:42;13.80;;;7.45;;
69511;SDS011;70777;52.034;4.644;2023-09-30T02:08:10;16.92;;;7.93;;
69511;SDS011;70777;52.034;4.644;2023-09-30T02:10:40;19.95;;;7.65;;
69511;SDS011;70777;52.034;4.644;2023-09-30T02:13:09;18.30;;;8.68;;
69511;SDS011;70777;52.034;4.644;2023-09-30T02:15:41;18.80;;;8.15;;
69511;SDS011;70777;52.034;4.644;2023-09-30T02:18:12;15.43;;;8.05;;
69511;SDS011;70777;52.034;4.644;2023-09-30T02:20:42;19.33;;;8.38;;
69511;SDS011;70777;52.034;4.644;2023-09-30T02:23:12;20.13;;;8.68;;
69511;SDS011;70777;52.034;4.644;2023-09-30T02:25:42;14.02;;;7.32;;
69511;SDS011;70777;52.034;4.644;2023-09-30T02:28:11;18.25;;;8.70;;
69511;SDS011;70777;52.034;4.644;2023-09-30T02:30:39;17.17;;;7.97;;
69511;SDS011;70777;52.034;4.644;2023-09-30T02:33:10;22.35;;;9.10;;
69511;SDS011;70777;52.034;4.644;2023-09-30T02:35:44;17.48;;;8.45;;
69511;SDS011;70777;52.034;4.644;2023-09-30T02:38:14;20.77;;;8.85;;
69511;SDS011;70777;52.034;4.644;2023-09-30T02:40:48;19.02;;;8.90;;
69511;SDS011;70777;52.034;4.644;2023-09-30T02:43:18;19.20;;;8.55;;
69511;SDS011;70777;52.034;4.644;2023-09-30T02:45:49;22.60;;;10.70;;
69511;SDS011;70777;52.034;4.644;2023-09-30T02:48:19;19.77;;;9.20;;
69511;SDS011;70777;52.034;4.644;2023-09-30T02:50:47;20.88;;;9.45;;
69511;SDS011;70777;52.034;4.644;2023-09-30T02:53:18;17.45;;;9.00;;
69511;SDS011;70777;52.034;4.644;2023-09-30T02:55:52;24.02;;;10.43;;
69511;SDS011;70777;52.034;4.644;2023-09-30T02:58:26;25.00;;;10.55;;
69511;SDS011;70777;52.034;4.644;2023-09-30T03:00:56;19.38;;;10.20;;
69511;SDS011;70777;52.034;4.644;2023-09-30T03:03:27;21.60;;;9.82;;
69511;SDS011;70777;52.034;4.644;2023-09-30T03:05:57;18.10;;;9.00;;
69511;SDS011;70777;52.034;4.644;2023-09-30T03:08:27;23.27;;;11.18;;
69511;SDS011;70777;52.034;4.644;2023-09-30T03:10:55;22.65;;;10.77;;
69511;SDS011;70777;52.034;4.644;2023-09-30T03:13:22;23.55;;;11.02;;
69511;SDS011;70777;52.034;4.644;2023-09-30T03:15:53;19.55;;;10.25;;
69511;SDS011;70777;52.034;4.644;2023-09-30T03:18:23;25.58;;;11.90;;
69511;SDS011;70777;52.034;4.644;2023-09-30T03:20:57;23.70;;;11.48;;
69511;SDS011;70777;52.034;4.644;2023-09-30T03:23:35;27.88;;;11.02;;
69511;SDS011;70777;52.034;4.644;2023-09-30T03:26:07;24.75;;;11.60;;
69511;SDS011;70777;52.034;4.644;2023-09-30T03:28:37;24.83;;;11.93;;
69511;SDS011;70777;52.034;4.644;2023-09-30T03:31:05;21.30;;;10.95;;
69511;SDS011;70777;52.034;4.644;2023-09-30T03:33:37;24.60;;;11.27;;
69511;SDS011;70777;52.034;4.644;2023-09-30T03:36:08;20.75;;;9.85;;
69511;SDS011;70777;52.034;4.644;2023-09-30T03:38:36;23.75;;;11.07;;
69511;SDS011;70777;52.034;4.644;2023-09-30T03:41:06;22.77;;;10.82;;
69511;SDS011;70777;52.034;4.644;2023-09-30T03:43:34;27.25;;;11.52;;
69511;SDS011;70777;52.034;4.644;2023-09-30T03:46:08;24.13;;;12.20;;
69511;SDS011;70777;52.034;4.644;2023-09-30T03:48:38;29.35;;;11.98;;
69511;SDS011;70777;52.034;4.644;2023-09-30T03:51:14;30.38;;;12.10;;
69511;SDS011;70777;52.034;4.644;2023-09-30T03:53:45;24.52;;;12.20;;
69511;SDS011;70777;52.034;4.644;2023-09-30T03:56:14;31.02;;;12.93;;
69511;SDS011;70777;52.034;4.644;2023-09-30T03:58:44;29.77;;;13.38;;
69511;SDS011;70777;52.034;4.644;2023-09-30T04:01:14;25.25;;;12.57;;
69511;SDS011;70777;52.034;4.644;2023-09-30T04:03:47;23.67;;;11.90;;
69511;SDS011;70777;52.034;4.644;2023-09-30T04:06:15;24.95;;;12.73;;
69511;SDS011;70777;52.034;4.644;2023-09-30T04:08:46;27.58;;;11.88;;
69511;SDS011;70777;52.034;4.644;2023-09-30T04:11:17;22.80;;;11.68;;
69511;SDS011;70777;52.034;4.644;2023-09-30T04:13:47;26.35;;;11.90;;
69511;SDS011;70777;52.034;4.644;2023-09-30T04:16:17;25.90;;;11.85;;
69511;SDS011;70777;52.034;4.644;2023-09-30T04:18:48;23.10;;;12.07;;
69511;SDS011;70777;52.034;4.644;2023-09-30T04:21:21;29.42;;;13.27;;
69511;SDS011;70777;52.034;4.644;2023-09-30T04:23:50;23.08;;;12.45;;
69511;SDS011;70777;52.034;4.644;2023-09-30T04:26:21;26.40;;;13.05;;
69511;SDS011;70777;52.034;4.644;2023-09-30T04:28:52;28.90;;;14.35;;
69511;SDS011;70777;52.034;4.644;2023-09-30T04:31:22;28.83;;;14.00;;
69511;SDS011;70777;52.034;4.644;2023-09-30T04:33:52;31.27;;;15.70;;
69511;SDS011;70777;52.034;4.644;2023-09-30T04:36:21;29.00;;;13.90;;
69511;SDS011;70777;52.034;4.644;2023-09-30T04:38:50;33.00;;;16.13;;
69511;SDS011;70777;52.034;4.644;2023-09-30T04:41:18;29.38;;;14.18;;
69511;SDS011;70777;52.034;4.644;2023-09-30T04:43:48;27.70;;;12.75;;
69511;SDS011;70777;52.034;4.644;2023-09-30T04:46:19;27.35;;;12.93;;
69511;SDS011;70777;52.034;4.644;2023-09-30T04:48:49;31.08;;;14.77;;
69511;SDS011;70777;52.034;4.644;2023-09-30T04:51:20;30.48;;;14.77;;
69511;SDS011;70777;52.034;4.644;2023-09-30T04:53:52;36.17;;;14.55;;
69511;SDS011;70777;52.034;4.644;2023-09-30T04:56:26;28.80;;;14.23;;
69511;SDS011;70777;52.034;4.644;2023-09-30T04:58:55;24.83;;;13.48;;
69511;SDS011;70777;52.034;4.644;2023-09-30T05:01:26;25.45;;;13.30;;
69511;SDS011;70777;52.034;4.644;2023-09-30T05:03:55;23.15;;;12.48;;
69511;SDS011;70777;52.034;4.644;2023-09-30T05:06:23;24.08;;;13.13;;
69511;SDS011;70777;52.034;4.644;2023-09-30T05:08:52;25.40;;;13.65;;
69511;SDS011;70777;52.034;4.644;2023-09-30T05:11:22;26.95;;;13.82;;
69511;SDS011;70777;52.034;4.644;2023-09-30T05:13:52;26.67;;;13.20;;
69511;SDS011;70777;52.034;4.644;2023-09-30T05:16:20;28.42;;;13.73;;
69511;SDS011;70777;52.034;4.644;2023-09-30T05:18:48;29.80;;;13.50;;
69511;SDS011;70777;52.034;4.644;2023-09-30T05:21:18;29.88;;;14.80;;
69511;SDS011;70777;52.034;4.644;2023-09-30T05:23:47;26.73;;;13.98;;
69511;SDS011;70777;52.034;4.644;2023-09-30T05:26:17;27.20;;;13.43;;
69511;SDS011;70777;52.034;4.644;2023-09-30T05:28:47;26.48;;;12.50;;
69511;SDS011;70777;52.034;4.644;2023-09-30T05:31:18;29.02;;;13.30;;
69511;SDS011;70777;52.034;4.644;2023-09-30T05:33:49;31.60;;;14.25;;
69511;SDS011;70777;52.034;4.644;2023-09-30T05:36:19;28.02;;;15.57;;
69511;SDS011;70777;52.034;4.644;2023-09-30T05:38:47;23.13;;;13.60;;
69511;SDS011;70777;52.034;4.644;2023-09-30T05:41:17;28.63;;;13.52;;
69511;SDS011;70777;52.034;4.644;2023-09-30T05:43:47;33.15;;;16.85;;
69511;SDS011;70777;52.034;4.644;2023-09-30T05:46:17;25.70;;;12.48;;
69511;SDS011;70777;52.034;4.644;2023-09-30T05:48:47;30.00;;;14.75;;
69511;SDS011;70777;52.034;4.644;2023-09-30T05:51:16;32.95;;;16.23;;
69511;SDS011;70777;52.034;4.644;2023-09-30T05:53:46;21.80;;;13.73;;
69511;SDS011;70777;52.034;4.644;2023-09-30T05:56:16;24.90;;;13.90;;
69511;SDS011;70777;52.034;4.644;2023-09-30T05:58:45;29.52;;;15.30;;
69511;SDS011;70777;52.034;4.644;2023-09-30T06:01:17;34.85;;;16.88;;
69511;SDS011;70777;52.034;4.644;2023-09-30T06:03:48;29.20;;;15.80;;
69511;SDS011;70777;52.034;4.644;2023-09-30T06:06:19;25.38;;;13.90;;
69511;SDS011;70777;52.034;4.644;2023-09-30T06:08:50;28.08;;;13.75;;
69511;SDS011;70777;52.034;4.644;2023-09-30T06:11:19;32.65;;;15.80;;
69511;SDS011;70777;52.034;4.644;2023-09-30T06:13:55;34.08;;;17.58;;
69511;SDS011;70777;52.034;4.644;2023-09-30T06:16:32;34.25;;;17.90;;
69511;SDS011;70777;52.034;4.644;2023-09-30T06:19:01;32.83;;;15.95;;
69511;SDS011;70777;52.034;4.644;2023-09-30T06:21:33;33.83;;;17.10;;
69511;SDS011;70777;52.034;4.644;2023-09-30T06:24:01;33.97;;;18.00;;
69511;SDS011;70777;52.034;4.644;2023-09-30T06:26:30;31.92;;;17.33;;
69511;SDS011;70777;52.034;4.644;2023-09-30T06:28:58;39.13;;;17.85;;
69511;SDS011;70777;52.034;4.644;2023-09-30T06:33:55;37.97;;;20.65;;
69511;SDS011;70777;52.034;4.644;2023-09-30T06:36:27;40.60;;;20.88;;
69511;SDS011;70777;52.034;4.644;2023-09-30T06:38:59;42.63;;;20.80;;
69511;SDS011;70777;52.034;4.644;2023-09-30T06:41:32;41.58;;;20.60;;
69511;SDS011;70777;52.034;4.644;2023-09-30T06:44:02;48.17;;;23.45;;
69511;SDS011;70777;52.034;4.644;2023-09-30T06:46:30;39.45;;;20.50;;
69511;SDS011;70777;52.034;4.644;2023-09-30T06:48:58;39.13;;;19.85;;
69511;SDS011;70777;52.034;4.644;2023-09-30T06:51:29;38.08;;;20.98;;
69511;SDS011;70777;52.034;4.644;2023-09-30T06:53:58;47.63;;;23.35;;
69511;SDS011;70777;52.034;4.644;2023-09-30T06:56:27;45.08;;;22.33;;
69511;SDS011;70777;52.034;4.644;2023-09-30T06:58:56;44.15;;;20.83;;
69511;SDS011;70777;52.034;4.644;2023-09-30T07:01:26;36.55;;;20.60;;
69511;SDS011;70777;52.034;4.644;2023-09-30T07:03:56;37.70;;;20.73;;
69511;SDS011;70777;52.034;4.644;2023-09-30T07:06:28;36.22;;;18.85;;
69511;SDS011;70777;52.034;4.644;2023-09-30T07:08:59;34.70;;;18.95;;
69511;SDS011;70777;52.034;4.644;2023-09-30T07:11:31;26.77;;;17.17;;
69511;SDS011;70777;52.034;4.644;2023-09-30T07:14:01;29.27;;;17.52;;
69511;SDS011;70777;52.034;4.644;2023-09-30T07:16:31;27.73;;;16.83;;
69511;SDS011;70777;52.034;4.644;2023-09-30T07:19:00;29.17;;;17.35;;
69511;SDS011;70777;52.034;4.644;2023-09-30T07:21:30;30.42;;;17.63;;
69511;SDS011;70777;52.034;4.644;2023-09-30T07:23:58;28.90;;;16.35;;
69511;SDS011;70777;52.034;4.644;2023-09-30T07:26:26;28.08;;;16.08;;
69511;SDS011;70777;52.034;4.644;2023-09-30T07:28:56;30.92;;;17.55;;
69511;SDS011;70777;52.034;4.644;2023-09-30T07:31:26;25.23;;;15.68;;
69511;SDS011;70777;52.034;4.644;2023-09-30T07:33:56;28.75;;;17.35;;
69511;SDS011;70777;52.034;4.644;2023-09-30T07:36:26;31.27;;;17.65;;
69511;SDS011;70777;52.034;4.644;2023-09-30T07:38:55;31.67;;;16.40;;
69511;SDS011;70777;52.034;4.644;2023-09-30T07:41:26;30.38;;;16.27;;
69511;SDS011;70777;52.034;4.644;2023-09-30T07:43:57;24.30;;;14.07;;
69511;SDS011;70777;52.034;4.644;2023-09-30T07:46:29;20.83;;;12.93;;
69511;SDS011;70777;52.034;4.644;2023-09-30T07:48:58;20.48;;;12.00;;
69511;SDS011;70777;52.034;4.644;2023-09-30T07:51:28;19.33;;;10.43;;
69511;SDS011;70777;52.034;4.644;2023-09-30T07:53:59;21.05;;;11.40;;
69511;SDS011;70777;52.034;4.644;2023-09-30T07:56:28;15.30;;;9.75;;
69511;SDS011;70777;52.034;4.644;2023-09-30T07:58:57;18.25;;;10.45;;
69511;SDS011;70777;52.034;4.644;2023-09-30T08:01:29;16.35;;;10.27;;
69511;SDS011;70777;52.034;4.644;2023-09-30T08:04:01;16.02;;;10.02;;
69511;SDS011;70777;52.034;4.644;2023-09-30T08:06:32;17.60;;;9.90;;
69511;SDS011;70777;52.034;4.644;2023-09-30T08:09:01;16.13;;;10.02;;
69511;SDS011;70777;52.034;4.644;2023-09-30T08:11:36;14.93;;;9.00;;
69511;SDS011;70777;52.034;4.644;2023-09-30T08:14:05;15.82;;;8.90;;
69511;SDS011;70777;52.034;4.644;2023-09-30T08:16:36;16.50;;;9.13;;
69511;SDS011;70777;52.034;4.644;2023-09-30T08:19:06;14.38;;;8.45;;
69511;SDS011;70777;52.034;4.644;2023-09-30T08:21:35;17.83;;;9.07;;
69511;SDS011;70777;52.034;4.644;2023-09-30T08:24:05;17.25;;;8.68;;
69511;SDS011;70777;52.034;4.644;2023-09-30T08:26:35;14.85;;;8.73;;
69511;SDS011;70777;52.034;4.644;2023-09-30T08:29:05;15.25;;;8.43;;
69511;SDS011;70777;52.034;4.644;2023-09-30T08:31:36;12.10;;;7.82;;
69511;SDS011;70777;52.034;4.644;2023-09-30T08:34:05;13.13;;;7.50;;
69511;SDS011;70777;52.034;4.644;2023-09-30T08:36:35;15.13;;;8.77;;
69511;SDS011;70777;52.034;4.644;2023-09-30T08:39:04;14.27;;;8.07;;
69511;SDS011;70777;52.034;4.644;2023-09-30T08:41:35;18.35;;;7.65;;
69511;SDS011;70777;52.034;4.644;2023-09-30T08:44:04;16.63;;;8.02;;
69511;SDS011;70777;52.034;4.644;2023-09-30T08:46:35;19.88;;;8.32;;
69511;SDS011;70777;52.034;4.644;2023-09-30T08:49:04;15.48;;;8.23;;
69511;SDS011;70777;52.034;4.644;2023-09-30T08:51:34;13.13;;;7.28;;
69511;SDS011;70777;52.034;4.644;2023-09-30T08:54:05;14.32;;;7.40;;
69511;SDS011;70777;52.034;4.644;2023-09-30T08:56:35;15.13;;;7.85;;
69511;SDS011;70777;52.034;4.644;2023-09-30T08:59:05;19.17;;;8.27;;
69511;SDS011;70777;52.034;4.644;2023-09-30T09:01:33;14.50;;;7.75;;
69511;SDS011;70777;52.034;4.644;2023-09-30T09:04:04;14.38;;;7.68;;
69511;SDS011;70777;52.034;4.644;2023-09-30T09:06:37;14.98;;;8.00;;
69511;SDS011;70777;52.034;4.644;2023-09-30T09:09:15;14.88;;;7.72;;
69511;SDS011;70777;52.034;4.644;2023-09-30T09:11:50;16.55;;;7.60;;
69511;SDS011;70777;52.034;4.644;2023-09-30T09:14:18;11.82;;;5.85;;
69511;SDS011;70777;52.034;4.644;2023-09-30T09:16:53;15.73;;;6.47;;
69511;SDS011;70777;52.034;4.644;2023-09-30T09:19:25;13.50;;;6.05;;
69511;SDS011;70777;52.034;4.644;2023-09-30T09:22:01;13.60;;;6.13;;
69511;SDS011;70777;52.034;4.644;2023-09-30T09:24:34;14.27;;;6.15;;
69511;SDS011;70777;52.034;4.644;2023-09-30T09:27:10;13.82;;;5.63;;
69511;SDS011;70777;52.034;4.644;2023-09-30T09:29:43;13.43;;;5.13;;
69511;SDS011;70777;52.034;4.644;2023-09-30T09:32:14;13.52;;;4.80;;
69511;SDS011;70777;52.034;4.644;2023-09-30T09:34:45;9.10;;;3.90;;
69511;SDS011;70777;52.034;4.644;2023-09-30T09:37:30;10.40;;;3.90;;
69511;SDS011;70777;52.034;4.644;2023-09-30T09:40:03;9.60;;;3.88;;
69511;SDS011;70777;52.034;4.644;2023-09-30T09:42:33;11.60;;;4.57;;
69511;SDS011;70777;52.034;4.644;2023-09-30T09:45:04;10.95;;;3.85;;
69511;SDS011;70777;52.034;4.644;2023-09-30T09:47:36;9.90;;;3.47;;
69511;SDS011;70777;52.034;4.644;2023-09-30T09:50:07;6.85;;;2.60;;
69511;SDS011;70777;52.034;4.644;2023-09-30T09:52:36;12.13;;;3.78;;
69511;SDS011;70777;52.034;4.644;2023-09-30T09:55:05;8.90;;;2.95;;
69511;SDS011;70777;52.034;4.644;2023-09-30T09:57:35;8.50;;;2.95;;
69511;SDS011;70777;52.034;4.644;2023-09-30T10:00:04;11.35;;;3.38;;
69511;SDS011;70777;52.034;4.644;2023-09-30T10:05:08;7.90;;;2.30;;
69511;SDS011;70777;52.034;4.644;2023-09-30T10:10:25;6.70;;;2.28;;
69511;SDS011;70777;52.034;4.644;2023-09-30T10:12:56;7.95;;;1.70;;
69511;SDS011;70777;52.034;4.644;2023-09-30T10:18:02;9.15;;;1.98;;
69511;SDS011;70777;52.034;4.644;2023-09-30T10:20:42;6.43;;;1.92;;
69511;SDS011;70777;52.034;4.644;2023-09-30T10:26:13;9.25;;;2.13;;
69511;SDS011;70777;52.034;4.644;2023-09-30T10:28:44;7.20;;;1.60;;
69511;SDS011;70777;52.034;4.644;2023-09-30T10:31:19;9.30;;;1.90;;
69511;SDS011;70777;52.034;4.644;2023-09-30T10:36:33;6.05;;;1.30;;
69511;SDS011;70777;52.034;4.644;2023-09-30T10:39:11;9.32;;;2.17;;
69511;SDS011;70777;52.034;4.644;2023-09-30T10:46:57;10.45;;;1.98;;
69511;SDS011;70777;52.034;4.644;2023-09-30T10:49:29;6.95;;;1.70;;
69511;SDS011;70777;52.034;4.644;2023-09-30T10:51:58;5.68;;;1.50;;
69511;SDS011;70777;52.034;4.644;2023-09-30T10:54:30;6.78;;;1.77;;
69511;SDS011;70777;52.034;4.644;2023-09-30T10:57:00;6.80;;;2.05;;
69511;SDS011;70777;52.034;4.644;2023-09-30T10:59:29;8.07;;;1.90;;
69511;SDS011;70777;52.034;4.644;2023-09-30T11:02:02;6.25;;;1.83;;
69511;SDS011;70777;52.034;4.644;2023-09-30T11:04:44;6.43;;;1.52;;
69511;SDS011;70777;52.034;4.644;2023-09-30T11:07:19;7.15;;;1.58;;
69511;SDS011;70777;52.034;4.644;2023-09-30T11:09:53;7.18;;;2.10;;
69511;SDS011;70777;52.034;4.644;2023-09-30T11:12:23;9.18;;;2.22;;
69511;SDS011;70777;52.034;4.644;2023-09-30T11:15:01;9.60;;;2.28;;
69511;SDS011;70777;52.034;4.644;2023-09-30T11:17:33;9.65;;;2.03;;
69511;SDS011;70777;52.034;4.644;2023-09-30T11:20:03;9.93;;;2.20;;
69511;SDS011;70777;52.034;4.644;2023-09-30T11:22:33;5.55;;;2.10;;
69511;SDS011;70777;52.034;4.644;2023-09-30T11:25:05;8.45;;;2.78;;
69511;SDS011;70777;52.034;4.644;2023-09-30T11:27:42;7.53;;;2.60;;
69511;SDS011;70777;52.034;4.644;2023-09-30T11:30:10;6.90;;;2.10;;
69511;SDS011;70777;52.034;4.644;2023-09-30T11:32:39;7.70;;;2.35;;
69511;SDS011;70777;52.034;4.644;2023-09-30T11:35:21;9.27;;;2.38;;
69511;SDS011;70777;52.034;4.644;2023-09-30T11:37:52;9.27;;;2.70;;
69511;SDS011;70777;52.034;4.644;2023-09-30T11:40:22;5.57;;;1.77;;
69511;SDS011;70777;52.034;4.644;2023-09-30T11:43:09;8.27;;;2.33;;
69511;SDS011;70777;52.034;4.644;2023-09-30T11:45:40;10.52;;;2.70;;
69511;SDS011;70777;52.034;4.644;2023-09-30T11:48:20;7.90;;;2.63;;
69511;SDS011;70777;52.034;4.644;2023-09-30T11:50:51;11.48;;;2.67;;
69511;SDS011;70777;52.034;4.644;2023-09-30T11:53:21;8.40;;;2.25;;
69511;SDS011;70777;52.034;4.644;2023-09-30T11:55:49;14.57;;;2.45;;
69511;SDS011;70777;52.034;4.644;2023-09-30T11:58:23;9.23;;;2.40;;
69511;SDS011;70777;52.034;4.644;2023-09-30T12:00:54;7.53;;;2.50;;
69511;SDS011;70777;52.034;4.644;2023-09-30T12:03:24;14.65;;;3.10;;
69511;SDS011;70777;52.034;4.644;2023-09-30T12:05:57;11.00;;;3.05;;
69511;SDS011;70777;52.034;4.644;2023-09-30T12:08:27;9.55;;;3.20;;
69511;SDS011;70777;52.034;4.644;2023-09-30T12:10:58;11.60;;;2.92;;
69511;SDS011;70777;52.034;4.644;2023-09-30T12:13:28;7.00;;;2.70;;
69511;SDS011;70777;52.034;4.644;2023-09-30T12:15:58;11.45;;;2.90;;
69511;SDS011;70777;52.034;4.644;2023-09-30T12:18:28;10.30;;;3.38;;
69511;SDS011;70777;52.034;4.644;2023-09-30T12:20:56;8.48;;;2.70;;
69511;SDS011;70777;52.034;4.644;2023-09-30T12:23:25;7.32;;;2.33;;
69511;SDS011;70777;52.034;4.644;2023-09-30T12:25:56;9.95;;;3.22;;
69511;SDS011;70777;52.034;4.644;2023-09-30T12:28:26;11.25;;;3.03;;
69511;SDS011;70777;52.034;4.644;2023-09-30T12:31:00;10.38;;;3.63;;
69511;SDS011;70777;52.034;4.644;2023-09-30T12:33:29;8.50;;;3.72;;
69511;SDS011;70777;52.034;4.644;2023-09-30T12:36:02;10.15;;;4.05;;
69511;SDS011;70777;52.034;4.644;2023-09-30T12:38:33;11.30;;;3.47;;
69511;SDS011;70777;52.034;4.644;2023-09-30T12:41:03;9.27;;;3.58;;
69511;SDS011;70777;52.034;4.644;2023-09-30T12:43:32;12.65;;;3.30;;
69511;SDS011;70777;52.034;4.644;2023-09-30T12:46:02;13.23;;;3.95;;
69511;SDS011;70777;52.034;4.644;2023-09-30T12:48:31;13.45;;;3.67;;
69511;SDS011;70777;52.034;4.644;2023-09-30T12:51:00;11.15;;;3.20;;
69511;SDS011;70777;52.034;4.644;2023-09-30T12:53:33;8.65;;;2.60;;
69511;SDS011;70777;52.034;4.644;2023-09-30T12:56:03;10.57;;;3.50;;
69511;SDS011;70777;52.034;4.644;2023-09-30T12:58:30;8.55;;;3.13;;
69511;SDS011;70777;52.034;4.644;2023-09-30T13:01:00;10.00;;;3.28;;
69511;SDS011;70777;52.034;4.644;2023-09-30T13:03:29;8.35;;;3.10;;
69511;SDS011;70777;52.034;4.644;2023-09-30T13:06:01;8.68;;;3.10;;
69511;SDS011;70777;52.034;4.644;2023-09-30T13:08:32;14.55;;;3.58;;
69511;SDS011;70777;52.034;4.644;2023-09-30T13:11:05;10.27;;;3.40;;
69511;SDS011;70777;52.034;4.644;2023-09-30T13:13:33;14.15;;;3.60;;
69511;SDS011;70777;52.034;4.644;2023-09-30T13:16:03;12.68;;;3.55;;
69511;SDS011;70777;52.034;4.644;2023-09-30T13:18:34;10.02;;;2.95;;
69511;SDS011;70777;52.034;4.644;2023-09-30T13:21:03;12.73;;;3.33;;
69511;SDS011;70777;52.034;4.644;2023-09-30T13:23:33;10.52;;;3.25;;
69511;SDS011;70777;52.034;4.644;2023-09-30T13:26:02;12.43;;;4.45;;
69511;SDS011;70777;52.034;4.644;2023-09-30T13:28:32;10.35;;;3.30;;
69511;SDS011;70777;52.034;4.644;2023-09-30T13:31:01;15.57;;;3.88;;
69511;SDS011;70777;52.034;4.644;2023-09-30T13:33:29;13.05;;;3.55;;
69511;SDS011;70777;52.034;4.644;2023-09-30T13:35:59;12.00;;;3.33;;
69511;SDS011;70777;52.034;4.644;2023-09-30T13:38:30;10.30;;;3.22;;
69511;SDS011;70777;52.034;4.644;2023-09-30T13:41:01;10.75;;;3.60;;
69511;SDS011;70777;52.034;4.644;2023-09-30T13:43:30;10.15;;;3.88;;
69511;SDS011;70777;52.034;4.644;2023-09-30T13:46:02;11.57;;;3.80;;
69511;SDS011;70777;52.034;4.644;2023-09-30T13:48:33;13.18;;;3.78;;
69511;SDS011;70777;52.034;4.644;2023-09-30T13:51:07;10.95;;;3.40;;
69511;SDS011;70777;52.034;4.644;2023-09-30T13:53:36;11.60;;;3.78;;
69511;SDS011;70777;52.034;4.644;2023-09-30T13:56:06;17.38;;;3.67;;
69511;SDS011;70777;52.034;4.644;2023-09-30T13:58:37;10.00;;;3.35;;
69511;SDS011;70777;52.034;4.644;2023-09-30T14:01:07;10.70;;;3.42;;
69511;SDS011;70777;52.034;4.644;2023-09-30T14:03:34;13.80;;;3.10;;
69511;SDS011;70777;52.034;4.644;2023-09-30T14:06:13;11.30;;;3.33;;
69511;SDS011;70777;52.034;4.644;2023-09-30T14:08:52;9.52;;;2.65;;
69511;SDS011;70777;52.034;4.644;2023-09-30T14:11:23;8.85;;;3.22;;
69511;SDS011;70777;52.034;4.644;2023-09-30T14:13:52;9.63;;;2.70;;
69511;SDS011;70777;52.034;4.644;2023-09-30T14:16:21;10.00;;;2.47;;
69511;SDS011;70777;52.034;4.644;2023-09-30T14:18:52;9.73;;;2.90;;
69511;SDS011;70777;52.034;4.644;2023-09-30T14:21:21;7.00;;;2.80;;
69511;SDS011;70777;52.034;4.644;2023-09-30T14:23:50;12.00;;;3.47;;
69511;SDS011;70777;52.034;4.644;2023-09-30T14:26:20;7.13;;;2.03;;
69511;SDS011;70777;52.034;4.644;2023-09-30T14:28:49;10.45;;;2.83;;
69511;SDS011;70777;52.034;4.644;2023-09-30T14:31:20;7.63;;;2.75;;
69511;SDS011;70777;52.034;4.644;2023-09-30T14:33:49;6.90;;;3.15;;
69511;SDS011;70777;52.034;4.644;2023-09-30T14:36:18;9.60;;;2.55;;
69511;SDS011;70777;52.034;4.644;2023-09-30T14:38:48;11.43;;;2.75;;
69511;SDS011;70777;52.034;4.644;2023-09-30T14:41:17;7.97;;;2.55;;
69511;SDS011;70777;52.034;4.644;2023-09-30T14:43:46;8.75;;;2.45;;
69511;SDS011;70777;52.034;4.644;2023-09-30T14:46:16;7.60;;;2.60;;
69511;SDS011;70777;52.034;4.644;2023-09-30T14:48:45;7.93;;;2.10;;
69511;SDS011;70777;52.034;4.644;2023-09-30T14:51:16;9.75;;;2.70;;
69511;SDS011;70777;52.034;4.644;2023-09-30T14:53:50;12.32;;;2.53;;
69511;SDS011;70777;52.034;4.644;2023-09-30T14:56:20;11.35;;;2.15;;
69511;SDS011;70777;52.034;4.644;2023-09-30T14:58:50;8.50;;;2.13;;
69511;SDS011;70777;52.034;4.644;2023-09-30T15:01:18;7.90;;;2.00;;
69511;SDS011;70777;52.034;4.644;2023-09-30T15:03:49;8.07;;;1.88;;
69511;SDS011;70777;52.034;4.644;2023-09-30T15:06:17;6.20;;;1.58;;
69511;SDS011;70777;52.034;4.644;2023-09-30T15:08:51;10.55;;;1.88;;
69511;SDS011;70777;52.034;4.644;2023-09-30T15:11:20;8.95;;;2.00;;
69511;SDS011;70777;52.034;4.644;2023-09-30T15:13:49;9.18;;;2.40;;